Time;durP1;ratioP1;P1;durP2;ratioP2;P2;SDS_P1;SDS_P2;PMS_P1;PMS_P2;Temp;Humidity;BMP_temperature;BMP_pressure;BME280_temperature;BME280_humidity;BME280_pressure;Samples;Min_cycle;Max_cycle;Signal;HPM_P1;HPM_P2
2022/06/08 00:02:08;;;;;;;;;;;;;;;;;;5151060;27;19938;-88
2022/06/08 00:04:34;;;;;;;;;;;;;;;;;;5139675;27;19978;-88
2022/06/08 00:07:00;;;;;;;;;;;;;;;;;;5164604;27;20013;-89
2022/06/08 00:09:26;;;;;;;;;;;;;;;;;;5144004;27;20315;-90
2022/06/08 00:11:52;;;;;;;;;;;;;;;;;;5132699;27;19931;-85
2022/06/08 00:14:18;;;;;;;;;;;;;;;;;;5137816;27;19934;-88
2022/06/08 00:16:44;;;;;;;;;;;;;;;;;;5148055;27;19970;-87
2022/06/08 00:19:10;;;;;;;;;;;;;;;;;;5130635;27;19933;-89
2022/06/08 00:21:36;;;;;;;;;;;;;;;;;;5154037;27;19911;-87
2022/06/08 00:24:02;;;;;;;;;;;;;;;;;;5153996;27;19976;-87
2022/06/08 00:26:28;;;;;;;;;;;;;;;;;;5125049;27;19923;-87
2022/06/08 00:28:54;;;;;;;;;;;;;;;;;;5134533;28;19927;-87
2022/06/08 00:31:20;;;;;;;;;;;;;;;;;;5142925;27;19931;-88
2022/06/08 00:33:46;;;;;;;;;;;;;;;;;;5151792;27;19973;-88
2022/06/08 00:36:12;;;;;;;;;;;;;;;;;;5144573;27;19952;-87
2022/06/08 00:38:38;;;;;;;;;;;;;;;;;;5131593;27;19923;-88
2022/06/08 00:41:04;;;;;;;;;;;;;;;;;;5149926;27;19930;-89
2022/06/08 00:43:30;;;;;;;;;;;;;;;;;;5151871;27;19934;-89
2022/06/08 00:45:56;;;;;;;;;;;;;;;;;;5151708;27;20008;-86
2022/06/08 00:48:22;;;;;;;;;;;;;;;;;;5153845;27;19945;-89
2022/06/08 00:50:48;;;;;;;;;;;;;;;;;;5151113;27;19907;-87
2022/06/08 00:53:13;;;;;;;;;;;;;;;;;;5131875;28;19955;-88
2022/06/08 00:55:39;;;;;;;;;;;;;;;;;;5139541;27;19923;-87
2022/06/08 00:58:05;;;;;;;;;;;;;;;;;;5141892;27;19923;-88
2022/06/08 01:00:31;;;;;;;;;;;;;;;;;;5123375;27;19923;-87
2022/06/08 01:02:57;;;;;;;;;;;;;;;;;;5123516;28;19930;-88
2022/06/08 01:05:23;;;;;;;;;;;;;;;;;;5143544;27;20422;-87
2022/06/08 01:07:49;;;;;;;;;;;;;;;;;;5144957;27;19931;-89
2022/06/08 01:10:15;;;;;;;;;;;;;;;;;;5147175;27;19923;-87
2022/06/08 01:12:41;;;;;;;;;;;;;;;;;;5130950;27;19966;-89
2022/06/08 01:15:07;;;;;;;;;;;;;;;;;;5132993;27;19914;-88
2022/06/08 01:17:33;;;;;;;;;;;;;;;;;;5128109;27;19930;-88
2022/06/08 01:19:59;;;;;;;;;;;;;;;;;;5149436;27;19931;-87
2022/06/08 01:22:25;;;;;;;;;;;;;;;;;;5142506;27;19949;-87
2022/06/08 01:24:51;;;;;;;;;;;;;;;;;;5121396;27;19930;-88
2022/06/08 01:27:17;;;;;;;;;;;;;;;;;;5144681;27;19930;-86
2022/06/08 01:29:43;;;;;;;;;;;;;;;;;;5149864;27;19926;-89
2022/06/08 01:32:09;;;;;;;;;;;;;;;;;;5144792;27;19923;-89
2022/06/08 01:34:35;;;;;;;;;;;;;;;;;;5132702;27;19930;-90
2022/06/08 01:37:01;;;;;;;;;;;;;;;;;;5130740;27;19923;-86
2022/06/08 01:39:27;;;;;;;;;;;;;;;;;;5143581;27;20066;-90
2022/06/08 01:41:52;;;;;;;;;;;;;;;;;;5158158;27;19945;-89
2022/06/08 01:44:18;;;;;;;;;;;;;;;;;;5139464;27;19937;-87
2022/06/08 01:46:44;;;;;;;;;;;;;;;;;;5152156;27;19931;-88
2022/06/08 01:49:10;;;;;;;;;;;;;;;;;;5130194;27;19990;-89
2022/06/08 01:51:38;;;;;;;;;;;;;;;;;;5129773;27;19914;-91
2022/06/08 01:54:04;;;;;;;;;;;;;;;;;;5145221;27;19955;-85
2022/06/08 01:56:30;;;;;;;;;;;;;;;;;;5127481;27;19927;-87
2022/06/08 01:58:57;;;;;;;;;;;;;;;;;;5145543;27;19923;-87
2022/06/08 02:01:23;;;;;;;;;;;;;;;;;;5146173;27;19980;-88
2022/06/08 02:03:50;;;;;;;;;;;;;;;;;;5142093;27;19932;-88
2022/06/08 02:06:15;;;;;;;;;;;;;;;;;;5119904;27;19923;-88
2022/06/08 02:08:41;;;;;;;;;;;;;;;;;;5145072;27;19930;-88
2022/06/08 02:11:08;;;;;;;;;;;;;;;;;;5149508;27;19931;-87
2022/06/08 02:13:34;;;;;;;;;;;;;;;;;;5130588;27;19996;-86
2022/06/08 02:16:00;;;;;;;;;;;;;;;;;;5140328;27;19927;-87
2022/06/08 02:18:26;;;;;;;;;;;;;;;;;;5128882;27;19966;-86
2022/06/08 02:20:52;;;;;;;;;;;;;;;;;;5135870;27;19931;-91
2022/06/08 02:23:17;;;;;;;;;;;;;;;;;;5135523;27;19929;-89
2022/06/08 02:25:43;;;;;;;;;;;;;;;;;;5141729;27;20289;-92
2022/06/08 02:28:09;;;;;;;;;;;;;;;;;;5134665;27;20258;-89
2022/06/08 02:30:35;;;;;;;;;;;;;;;;;;5148931;27;19963;-89
2022/06/08 02:35:46;;;;;;;;;;;;;;;;;;5144172;27;20393;-90
2022/06/08 02:38:12;;;;;;;;;;;;;;;;;;5153004;27;19923;-87
2022/06/08 02:40:38;;;;;;;;;;;;;;;;;;5131961;27;19927;-88
2022/06/08 02:43:04;;;;;;;;;;;;;;;;;;5158021;27;19928;-89
2022/06/08 02:45:30;;;;;;;;;;;;;;;;;;5145944;27;19947;-90
2022/06/08 02:47:56;;;;;;;;;;;;;;;;;;5128455;27;19912;-87
2022/06/08 02:50:22;;;;;;;;;;;;;;;;;;5151274;27;19944;-89
2022/06/08 02:52:48;;;;;;;;;;;;;;;;;;5125074;27;19976;-87
2022/06/08 02:55:14;;;;;;;;;;;;;;;;;;5113881;27;20216;-87
2022/06/08 02:57:40;;;;;;;;;;;;;;;;;;5127323;27;19934;-88
2022/06/08 03:00:06;;;;;;;;;;;;;;;;;;5123098;27;19923;-86
2022/06/08 03:02:32;;;;;;;;;;;;;;;;;;5144270;27;19934;-87
2022/06/08 03:04:58;;;;;;;;;;;;;;;;;;5129707;27;20014;-88
2022/06/08 03:07:24;;;;;;;;;;;;;;;;;;5127089;27;20286;-88
2022/06/08 03:09:50;;;;;;;;;;;;;;;;;;5138274;27;19934;-89
2022/06/08 03:12:16;;;;;;;;;;;;;;;;;;5137904;27;19927;-89
2022/06/08 03:14:42;;;;;;;;;;;;;;;;;;5142546;27;20418;-86
2022/06/08 03:17:10;;;;;;;;;;;;;;;;;;5149760;27;19946;-88
2022/06/08 03:19:36;;;;;;;;;;;;;;;;;;5134188;27;20362;-88
2022/06/08 03:22:02;;;;;;;;;;;;;;;;;;5146092;27;19937;-86
2022/06/08 03:24:28;;;;;;;;;;;;;;;;;;5117149;27;19923;-86
2022/06/08 03:26:54;;;;;;;;;;;;;;;;;;5131068;27;19924;-89
2022/06/08 03:29:20;;;;;;;;;;;;;;;;;;5148858;27;19966;-87
2022/06/08 03:31:46;;;;;;;;;;;;;;;;;;5144448;27;20381;-88
2022/06/08 03:34:12;;;;;;;;;;;;;;;;;;5134036;27;19923;-87
2022/06/08 03:36:38;;;;;;;;;;;;;;;;;;5149323;27;19966;-87
2022/06/08 03:39:04;;;;;;;;;;;;;;;;;;5152495;27;19923;-89
2022/06/08 03:41:31;;;;;;;;;;;;;;;;;;5131650;27;19933;-89
2022/06/08 03:43:57;;;;;;;;;;;;;;;;;;5161297;27;19923;-89
2022/06/08 03:46:23;;;;;;;;;;;;;;;;;;5148510;27;19982;-89
2022/06/08 03:48:51;;;;;;;;;;;;;;;;;;5148245;27;20017;-86
2022/06/08 03:51:16;;;;;;;;;;;;;;;;;;5145630;27;19930;-85
2022/06/08 03:53:42;;;;;;;;;;;;;;;;;;5140281;27;19927;-89
2022/06/08 03:56:08;;;;;;;;;;;;;;;;;;5123685;27;19930;-87
2022/06/08 03:58:34;;;;;;;;;;;;;;;;;;5134331;27;19984;-88
2022/06/08 04:01:00;;;;;;;;;;;;;;;;;;5141932;27;19979;-86
2022/06/08 04:03:26;;;;;;;;;;;;;;;;;;5142642;27;19923;-87
2022/06/08 04:05:52;;;;;;;;;;;;;;;;;;5126566;27;19973;-89
2022/06/08 04:08:18;;;;;;;;;;;;;;;;;;5141623;27;19923;-85
2022/06/08 04:10:44;;;;;;;;;;;;;;;;;;5141209;27;19977;-86
2022/06/08 04:13:10;;;;;;;;;;;;;;;;;;5139776;27;19922;-86
2022/06/08 04:15:42;;;;;;;;;;;;;;;;;;5143233;27;19907;-89
2022/06/08 04:18:08;;;;;;;;;;;;;;;;;;5130765;27;19923;-88
2022/06/08 04:20:34;;;;;;;;;;;;;;;;;;5133705;27;19945;-87
2022/06/08 04:23:00;;;;;;;;;;;;;;;;;;5156718;27;19928;-88
2022/06/08 04:25:26;;;;;;;;;;;;;;;;;;5139277;27;20347;-87
2022/06/08 04:27:52;;;;;;;;;;;;;;;;;;5145808;27;19938;-89
2022/06/08 04:30:18;;;;;;;;;;;;;;;;;;5129381;27;19944;-88
2022/06/08 04:32:44;;;;;;;;;;;;;;;;;;5123216;27;19927;-92
2022/06/08 04:35:10;;;;;;;;;;;;;;;;;;5133772;27;21011;-86
2022/06/08 04:37:37;;;;;;;;;;;;;;;;;;5142981;27;20402;-87
2022/06/08 04:40:03;;;;;;;;;;;;;;;;;;5143095;27;20023;-91
2022/06/08 04:42:29;;;;;;;;;;;;;;;;;;5143856;27;19927;-89
2022/06/08 04:44:55;;;;;;;;;;;;;;;;;;5129924;27;20988;-88
2022/06/08 04:47:21;;;;;;;;;;;;;;;;;;5127904;27;20208;-87
2022/06/08 04:49:47;;;;;;;;;;;;;;;;;;5141776;27;19922;-88
2022/06/08 04:52:13;;;;;;;;;;;;;;;;;;5143940;27;19924;-89
2022/06/08 04:54:39;;;;;;;;;;;;;;;;;;5146932;27;19958;-83
2022/06/08 04:57:05;;;;;;;;;;;;;;;;;;5133838;27;19912;-90
2022/06/08 04:59:31;;;;;;;;;;;;;;;;;;5135690;27;19927;-83
2022/06/08 05:01:57;;;;;;;;;;;;;;;;;;5135234;27;19907;-88
2022/06/08 05:04:23;;;;;;;;;;;;;;;;;;5127659;27;19970;-85
2022/06/08 05:06:48;;;;;;;;;;;;;;;;;;5142274;27;20193;-89
2022/06/08 05:09:14;;;;;;;;;;;;;;;;;;5134246;27;19923;-94
2022/06/08 05:11:40;;;;;;;;;;;;;;;;;;5136006;27;20004;-88
2022/06/08 05:14:06;;;;;;;;;;;;;;;;;;5121873;27;20002;-85
2022/06/08 05:16:32;;;;;;;;;;;;;;;;;;5116357;27;19923;-84
2022/06/08 05:18:58;;;;;;;;;;;;;;;;;;5112489;27;19963;-84
2022/06/08 05:21:24;;;;;;;;;;;;;;;;;;5126339;27;19957;-86
2022/06/08 05:23:50;;;;;;;;;;;;;;;;;;5131804;27;19926;-85
2022/06/08 05:26:16;;;;;;;;;;;;;;;;;;5121111;27;19923;-86
2022/06/08 05:28:43;;;;;;;;;;;;;;;;;;5139667;27;19931;-86
2022/06/08 05:31:09;;;;;;;;;;;;;;;;;;5136277;27;19999;-86
2022/06/08 05:33:35;;;;;;;;;;;;;;;;;;5140098;27;19923;-87
2022/06/08 05:36:01;;;;;;;;;;;;;;;;;;5122726;27;19967;-86
2022/06/08 05:38:27;;;;;;;;;;;;;;;;;;5126042;27;19930;-86
2022/06/08 05:40:54;;;;;;;;;;;;;;;;;;5115266;27;19953;-88
2022/06/08 05:43:20;;;;;;;;;;;;;;;;;;5116661;27;19930;-88
2022/06/08 05:45:46;;;;;;;;;;;;;;;;;;5139636;27;19984;-89
2022/06/08 05:48:12;;;;;;;;;;;;;;;;;;5142911;27;19930;-86
2022/06/08 05:50:38;;;;;;;;;;;;;;;;;;5135986;27;19923;-87
2022/06/08 05:53:04;;;;;;;;;;;;;;;;;;5139303;27;19922;-88
2022/06/08 05:55:30;;;;;;;;;;;;;;;;;;5134244;27;19927;-85
2022/06/08 05:57:56;;;;;;;;;;;;;;;;;;5145856;27;19919;-85
2022/06/08 06:00:22;;;;;;;;;;;;;;;;;;5127805;27;20405;-86
2022/06/08 06:02:48;;;;;;;;;;;;;;;;;;5124036;27;20645;-87
2022/06/08 06:05:14;;;;;;;;;;;;;;;;;;5126732;27;19930;-87
2022/06/08 06:07:41;;;;;;;;;;;;;;;;;;5129904;27;19927;-87
2022/06/08 06:10:07;;;;;;;;;;;;;;;;;;5125956;27;19930;-87
2022/06/08 06:12:34;;;;;;;;;;;;;;;;;;5122561;27;20333;-85
2022/06/08 06:15:01;;;;;;;;;;;;;;;;;;5136172;27;20396;-86
2022/06/08 06:17:27;;;;;;;;;;;;;;;;;;5118949;27;19923;-84
2022/06/08 06:19:53;;;;;;;;;;;;;;;;;;5133037;27;19934;-86
2022/06/08 06:22:18;;;;;;;;;;;;;;;;;;5115649;27;19968;-86
2022/06/08 06:24:44;;;;;;;;;;;;;;;;;;5117884;27;19923;-85
2022/06/08 06:27:10;;;;;;;;;;;;;;;;;;5133224;27;19934;-86
2022/06/08 06:29:36;;;;;;;;;;;;;;;;;;5123607;27;19930;-85
2022/06/08 06:32:02;;;;;;;;;;;;;;;;;;5136341;27;19923;-85
2022/06/08 06:34:29;;;;;;;;;;;;;;;;;;5127350;27;19923;-84
2022/06/08 06:36:55;;;;;;;;;;;;;;;;;;5107855;27;19930;-85
2022/06/08 06:39:21;;;;;;;;;;;;;;;;;;5117979;27;19949;-86
2022/06/08 06:41:47;;;;;;;;;;;;;;;;;;5136669;27;19930;-87
2022/06/08 06:44:13;;;;;;;;;;;;;;;;;;5130415;27;19930;-85
2022/06/08 06:46:39;;;;;;;;;;;;;;;;;;5136985;27;19923;-86
2022/06/08 06:49:05;;;;;;;;;;;;;;;;;;5130035;27;20307;-85
2022/06/08 06:51:31;;;;;;;;;;;;;;;;;;5118373;27;19923;-85
2022/06/08 06:53:57;;;;;;;;;;;;;;;;;;5125901;27;19962;-84
2022/06/08 06:56:23;;;;;;;;;;;;;;;;;;5120699;27;19923;-85
2022/06/08 06:58:49;;;;;;;;;;;;;;;;;;5128097;27;19923;-84
2022/06/08 07:01:15;;;;;;;;;;;;;;;;;;5134902;27;19922;-84
2022/06/08 07:03:41;;;;;;;;;;;;;;;;;;5139790;27;20014;-85
2022/06/08 07:06:07;;;;;;;;;;;;;;;;;;5113117;27;20013;-86
2022/06/08 07:08:33;;;;;;;;;;;;;;;;;;5127777;27;19923;-85
2022/06/08 07:13:44;;;;;;;;;;;;;;;;;;5127690;27;19927;-86
2022/06/08 07:16:10;;;;;;;;;;;;;;;;;;5134460;27;20018;-85
2022/06/08 07:18:36;;;;;;;;;;;;;;;;;;5106069;27;19946;-84
2022/06/08 07:21:02;;;;;;;;;;;;;;;;;;5099988;27;19967;-85
2022/06/08 07:23:28;;;;;;;;;;;;;;;;;;5116970;27;20006;-85
2022/06/08 07:25:54;;;;;;;;;;;;;;;;;;5099504;27;19924;-85
2022/06/08 07:28:20;;;;;;;;;;;;;;;;;;5112310;27;19932;-85
2022/06/08 07:30:46;;;;;;;;;;;;;;;;;;5119137;27;19931;-86
2022/06/08 07:33:12;;;;;;;;;;;;;;;;;;5123808;27;19973;-86
2022/06/08 07:35:38;;;;;;;;;;;;;;;;;;5117402;27;19930;-85
2022/06/08 07:38:03;;;;;;;;;;;;;;;;;;5115814;27;19923;-86
2022/06/08 07:40:30;;;;;;;;;;;;;;;;;;5127500;27;19924;-85
2022/06/08 07:42:56;;;;;;;;;;;;;;;;;;5118808;27;20362;-86
2022/06/08 07:45:22;;;;;;;;;;;;;;;;;;5109577;27;20015;-86
2022/06/08 07:50:33;;;;;;;;;;;;;;;;;;5122871;27;19923;-86
2022/06/08 07:53:00;;;;;;;;;;;;;;;;;;5121323;27;20247;-84
2022/06/08 07:55:26;;;;;;;;;;;;;;;;;;5110510;27;20292;-85
2022/06/08 07:57:53;;;;;;;;;;;;;;;;;;5119757;27;20006;-83
2022/06/08 08:00:19;;;;;;;;;;;;;;;;;;5123492;27;19963;-84
2022/06/08 08:02:45;;;;;;;;;;;;;;;;;;5115537;27;19977;-85
2022/06/08 08:05:11;;;;;;;;;;;;;;;;;;5117200;27;19952;-85
2022/06/08 08:07:37;;;;;;;;;;;;;;;;;;5130598;27;19931;-84
2022/06/08 08:10:03;;;;;;;;;;;;;;;;;;5133207;27;20438;-85
2022/06/08 08:12:29;;;;;;;;;;;;;;;;;;5106612;27;19964;-87
2022/06/08 08:14:56;;;;;;;;;;;;;;;;;;5126988;27;20488;-87
2022/06/08 08:17:22;;;;;;;;;;;;;;;;;;5122278;27;20286;-87
2022/06/08 08:19:48;;;;;;;;;;;;;;;;;;5144032;27;19929;-87
2022/06/08 08:22:15;;;;;;;;;;;;;;;;;;5120824;27;19935;-85
2022/06/08 08:24:41;;;;;;;;;;;;;;;;;;5114858;27;19923;-84
2022/06/08 08:27:07;;;;;;;;;;;;;;;;;;5122681;27;20002;-83
2022/06/08 08:29:33;;;;;;;;;;;;;;;;;;5114764;27;19923;-83
2022/06/08 08:31:59;;;;;;;;;;;;;;;;;;5115246;28;19949;-84
2022/06/08 08:34:25;;;;;;;;;;;;;;;;;;5120543;27;19923;-85
2022/06/08 08:36:51;;;;;;;;;;;;;;;;;;5116919;27;19960;-84
2022/06/08 08:39:17;;;;;;;;;;;;;;;;;;5115541;28;19920;-84
2022/06/08 08:44:27;;;;;;;;;;;;;;;;;;5120531;27;19924;-84
2022/06/08 08:46:53;;;;;;;;;;;;;;;;;;5116029;27;19923;-83
2022/06/08 08:49:19;;;;;;;;;;;;;;;;;;5109835;28;20247;-84
2022/06/08 08:51:45;;;;;;;;;;;;;;;;;;5116574;27;20033;-84
2022/06/08 08:54:11;;;;;;;;;;;;;;;;;;5144820;27;19930;-86
2022/06/08 08:56:37;;;;;;;;;;;;;;;;;;5132480;27;19930;-83
2022/06/08 08:59:03;;;;;;;;;;;;;;;;;;5131807;27;19946;-83
2022/06/08 09:01:29;;;;;;;;;;;;;;;;;;5124442;27;20362;-83
2022/06/08 09:03:55;;;;;;;;;;;;;;;;;;5133816;27;20386;-83
2022/06/08 09:06:22;;;;;;;;;;;;;;;;;;5121279;27;19950;-83
2022/06/08 09:08:48;;;;;;;;;;;;;;;;;;5132699;27;20366;-85
2022/06/08 09:11:13;;;;;;;;;;;;;;;;;;5122151;27;20683;-84
2022/06/08 09:13:39;;;;;;;;;;;;;;;;;;5125506;27;20007;-84
2022/06/08 09:16:05;;;;;;;;;;;;;;;;;;5122904;27;19972;-84
2022/06/08 09:18:32;;;;;;;;;;;;;;;;;;5119896;27;19927;-84
2022/06/08 09:20:58;;;;;;;;;;;;;;;;;;5121066;27;20379;-84
2022/06/08 09:23:24;;;;;;;;;;;;;;;;;;5124550;27;19966;-84
2022/06/08 09:25:50;;;;;;;;;;;;;;;;;;5122486;27;19953;-84
2022/06/08 09:28:16;;;;;;;;;;;;;;;;;;5122179;27;20366;-85
2022/06/08 09:30:42;;;;;;;;;;;;;;;;;;5130220;27;20377;-85
2022/06/08 09:33:08;;;;;;;;;;;;;;;;;;5130867;27;20738;-86
2022/06/08 09:35:35;;;;;;;;;;;;;;;;;;5119683;27;20266;-82
2022/06/08 09:38:02;;;;;;;;;;;;;;;;;;5129389;27;19924;-84
2022/06/08 09:40:37;;;;;;;;;;;;;;;;;;5134517;27;19923;-85
2022/06/08 09:43:03;;;;;;;;;;;;;;;;;;5128885;27;19928;-90
2022/06/08 09:45:29;;;;;;;;;;;;;;;;;;5148716;27;19928;-86
2022/06/08 09:53:24;;;;;;;;;;;;;;;;;;5124760;27;19942;-82
2022/06/08 09:55:50;;;;;;;;;;;;;;;;;;5134889;27;19927;-82
2022/06/08 09:58:16;;;;;;;;;;;;;;;;;;5125331;27;19969;-83
2022/06/08 10:00:43;;;;;;;;;;;;;;;;;;5115817;27;19923;-84
2022/06/08 10:03:09;;;;;;;;;;;;;;;;;;5101486;27;19937;-83
2022/06/08 10:05:35;;;;;;;;;;;;;;;;;;5124406;27;19927;-84
2022/06/08 10:08:01;;;;;;;;;;;;;;;;;;5120377;27;20010;-85
2022/06/08 10:10:27;;;;;;;;;;;;;;;;;;5127078;27;20406;-83
2022/06/08 10:12:55;;;;;;;;;;;;;;;;;;5126307;27;19923;-85
2022/06/08 10:15:21;;;;;;;;;;;;;;;;;;5116981;27;19924;-86
2022/06/08 10:17:47;;;;;;;;;;;;;;;;;;5131757;27;19923;-87
2022/06/08 10:20:13;;;;;;;;;;;;;;;;;;5129726;27;19978;-84
2022/06/08 10:22:39;;;;;;;;;;;;;;;;;;5128142;27;19924;-85
2022/06/08 10:25:07;;;;;;;;;;;;;;;;;;5114863;27;19923;-85
2022/06/08 10:27:33;;;;;;;;;;;;;;;;;;5102655;28;19974;-86
2022/06/08 10:29:59;;;;;;;;;;;;;;;;;;5127445;27;19924;-84
2022/06/08 10:32:25;;;;;;;;;;;;;;;;;;5117540;27;20636;-83
2022/06/08 10:34:54;;;;;;;;;;;;;;;;;;5125423;27;20290;-87
2022/06/08 10:37:22;;;;;;;;;;;;;;;;;;5126966;27;19935;-88
2022/06/08 10:39:48;;;;;;;;;;;;;;;;;;5115311;27;19923;-89
2022/06/08 10:44:59;;;;;;;;;;;;;;;;;;5133533;27;19924;-91
2022/06/08 10:47:25;;;;;;;;;;;;;;;;;;5116538;27;19975;-90
2022/06/08 10:49:51;;;;;;;;;;;;;;;;;;5116456;27;19935;-90
2022/06/08 10:52:17;;;;;;;;;;;;;;;;;;5132825;27;20250;-93
2022/06/08 10:54:58;;;;;;;;;;;;;;;;;;5117109;27;19972;-95
2022/06/08 10:57:24;;;;;;;;;;;;;;;;;;5127819;27;19924;-89
2022/06/08 10:59:50;;;;;;;;;;;;;;;;;;5132303;27;19927;-96
2022/06/08 11:02:16;;;;;;;;;;;;;;;;;;5125112;27;20014;-93
2022/06/08 11:04:43;;;;;;;;;;;;;;;;;;5130408;27;19931;-89
2022/06/08 11:07:10;;;;;;;;;;;;;;;;;;5114402;27;19923;-92
2022/06/08 11:09:36;;;;;;;;;;;;;;;;;;5116883;27;19976;-88
2022/06/08 11:12:04;;;;;;;;;;;;;;;;;;5124257;27;19985;-84
2022/06/08 11:14:30;;;;;;;;;;;;;;;;;;5124260;27;19924;-87
2022/06/08 11:16:56;;;;;;;;;;;;;;;;;;5121171;27;19934;-87
2022/06/08 11:19:22;;;;;;;;;;;;;;;;;;5104975;27;20350;-86
2022/06/08 11:21:47;;;;;;;;;;;;;;;;;;5119247;27;20393;-85
2022/06/08 11:24:14;;;;;;;;;;;;;;;;;;5114796;27;19923;-86
2022/06/08 11:26:40;;;;;;;;;;;;;;;;;;5111123;27;19923;-87
2022/06/08 11:29:06;;;;;;;;;;;;;;;;;;5118052;27;20316;-84
2022/06/08 11:31:32;;;;;;;;;;;;;;;;;;5113984;27;19927;-85
2022/06/08 11:33:58;;;;;;;;;;;;;;;;;;5123639;27;20616;-85
2022/06/08 11:36:24;;;;;;;;;;;;;;;;;;5120744;27;20330;-83
2022/06/08 11:38:50;;;;;;;;;;;;;;;;;;5122653;27;19998;-88
2022/06/08 11:41:16;;;;;;;;;;;;;;;;;;5106964;27;19993;-85
2022/06/08 11:43:42;;;;;;;;;;;;;;;;;;5102428;27;19924;-87
2022/06/08 11:46:08;;;;;;;;;;;;;;;;;;5113041;27;19927;-84
2022/06/08 11:48:34;;;;;;;;;;;;;;;;;;5111289;27;19969;-82
2022/06/08 11:50:59;;;;;;;;;;;;;;;;;;5113912;27;19931;-81
2022/06/08 11:53:25;;;;;;;;;;;;;;;;;;5115912;27;19924;-90
2022/06/08 11:55:51;;;;;;;;;;;;;;;;;;5111853;28;19924;-83
2022/06/08 11:58:17;;;;;;;;;;;;;;;;;;5130944;27;19923;-90
2022/06/08 12:00:44;;;;;;;;;;;;;;;;;;5126387;27;20344;-88
2022/06/08 12:03:10;;;;;;;;;;;;;;;;;;5127597;27;19923;-89
2022/06/08 12:05:36;;;;;;;;;;;;;;;;;;5123700;27;19923;-87
2022/06/08 12:08:02;;;;;;;;;;;;;;;;;;5113627;27;19989;-86
2022/06/08 12:10:28;;;;;;;;;;;;;;;;;;5136861;27;19923;-84
2022/06/08 12:12:54;;;;;;;;;;;;;;;;;;5124436;27;19931;-85
2022/06/08 12:15:20;;;;;;;;;;;;;;;;;;5114447;27;20370;-84
2022/06/08 12:17:46;;;;;;;;;;;;;;;;;;5125091;27;19930;-85
2022/06/08 12:20:12;;;;;;;;;;;;;;;;;;5131715;27;19938;-85
2022/06/08 12:22:40;;;;;;;;;;;;;;;;;;5125669;27;19973;-85
2022/06/08 12:25:05;;;;;;;;;;;;;;;;;;5100736;28;19923;-84
2022/06/08 12:27:31;;;;;;;;;;;;;;;;;;5121395;27;19928;-86
2022/06/08 12:29:57;;;;;;;;;;;;;;;;;;5111587;28;19928;-85
2022/06/08 12:32:23;;;;;;;;;;;;;;;;;;5106071;28;19923;-85
2022/06/08 12:34:49;;;;;;;;;;;;;;;;;;5118262;27;20010;-86
2022/06/08 12:37:15;;;;;;;;;;;;;;;;;;5109658;28;19924;-85
2022/06/08 12:39:41;;;;;;;;;;;;;;;;;;5113045;28;19931;-84
2022/06/08 12:42:07;;;;;;;;;;;;;;;;;;5111358;28;19930;-84
2022/06/08 12:44:35;;;;;;;;;;;;;;;;;;5111836;28;19924;-85
2022/06/08 12:47:00;;;;;;;;;;;;;;;;;;5114022;28;19992;-85
2022/06/08 12:49:26;;;;;;;;;;;;;;;;;;5104969;28;20528;-85
2022/06/08 12:51:52;;;;;;;;;;;;;;;;;;5112409;28;19924;-85
2022/06/08 12:54:18;;;;;;;;;;;;;;;;;;5120525;28;20287;-84
2022/06/08 12:56:44;;;;;;;;;;;;;;;;;;5111607;28;19930;-84
2022/06/08 12:59:11;;;;;;;;;;;;;;;;;;5094391;28;19928;-83
2022/06/08 13:01:37;;;;;;;;;;;;;;;;;;5112106;28;19973;-84
2022/06/08 13:04:03;;;;;;;;;;;;;;;;;;5117127;28;19927;-84
2022/06/08 13:06:30;;;;;;;;;;;;;;;;;;5117345;27;20055;-93
2022/06/08 13:08:57;;;;;;;;;;;;;;;;;;5110415;27;19930;-87
2022/06/08 13:11:26;;;;;;;;;;;;;;;;;;5139332;27;20006;-87
2022/06/08 13:13:55;;;;;;;;;;;;;;;;;;5135029;27;20071;-81
2022/06/08 13:16:21;;;;;;;;;;;;;;;;;;5116922;28;19928;-83
2022/06/08 13:18:47;;;;;;;;;;;;;;;;;;5126973;27;19931;-82
2022/06/08 13:21:13;;;;;;;;;;;;;;;;;;5110677;28;20007;-84
2022/06/08 13:23:39;;;;;;;;;;;;;;;;;;5111806;28;20004;-83
2022/06/08 13:26:05;;;;;;;;;;;;;;;;;;5120921;28;19924;-83
2022/06/08 13:28:31;;;;;;;;;;;;;;;;;;5112135;28;19931;-85
2022/06/08 13:30:57;;;;;;;;;;;;;;;;;;5101985;28;19945;-84
2022/06/08 13:36:08;;;;;;;;;;;;;;;;;;5118340;28;20014;-82
2022/06/08 13:38:34;;;;;;;;;;;;;;;;;;5128089;28;20002;-82
2022/06/08 13:41:01;;;;;;;;;;;;;;;;;;5098895;28;19954;-84
2022/06/08 13:43:27;;;;;;;;;;;;;;;;;;5103350;27;19927;-82
2022/06/08 13:45:53;;;;;;;;;;;;;;;;;;5115871;27;19967;-82
2022/06/08 13:48:19;;;;;;;;;;;;;;;;;;5109298;28;19959;-83
2022/06/08 13:50:45;;;;;;;;;;;;;;;;;;5123605;27;19924;-82
2022/06/08 13:53:11;;;;;;;;;;;;;;;;;;5097328;28;19934;-83
2022/06/08 13:55:37;;;;;;;;;;;;;;;;;;5127159;27;19919;-83
2022/06/08 13:58:03;;;;;;;;;;;;;;;;;;5114172;28;19931;-83
2022/06/08 14:00:29;;;;;;;;;;;;;;;;;;5105311;28;19924;-86
2022/06/08 14:02:55;;;;;;;;;;;;;;;;;;5115097;28;20052;-86
2022/06/08 14:05:23;;;;;;;;;;;;;;;;;;5114424;28;19928;-84
2022/06/08 14:13:19;;;;;;;;;;;;;;;;;;5122842;27;19995;-83
2022/06/08 14:15:44;;;;;;;;;;;;;;;;;;5125578;27;19923;-82
2022/06/08 14:18:10;;;;;;;;;;;;;;;;;;5145582;27;20017;-84
2022/06/08 14:20:36;;;;;;;;;;;;;;;;;;5118386;27;20259;-81
2022/06/08 14:23:02;;;;;;;;;;;;;;;;;;5122585;27;20358;-82
2022/06/08 14:25:28;;;;;;;;;;;;;;;;;;5148018;27;19923;-76
2022/06/08 14:27:54;;;;;;;;;;;;;;;;;;5118594;27;19930;-85
2022/06/08 14:30:20;;;;;;;;;;;;;;;;;;5106236;27;20346;-85
2022/06/08 14:32:46;;;;;;;;;;;;;;;;;;5100961;27;19923;-84
2022/06/08 14:35:12;;;;;;;;;;;;;;;;;;5104207;27;19938;-89
2022/06/08 14:37:39;;;;;;;;;;;;;;;;;;5112531;27;19970;-94
2022/06/08 14:40:05;;;;;;;;;;;;;;;;;;5120099;27;19923;-94
2022/06/08 14:42:31;;;;;;;;;;;;;;;;;;5110656;27;19968;-89
2022/06/08 14:44:58;;;;;;;;;;;;;;;;;;5099745;27;19924;-89
2022/06/08 14:47:26;;;;;;;;;;;;;;;;;;5100270;27;19923;-87
2022/06/08 14:49:52;;;;;;;;;;;;;;;;;;5106288;27;19923;-88
2022/06/08 14:52:18;;;;;;;;;;;;;;;;;;5102364;27;19990;-95
2022/06/08 14:54:44;;;;;;;;;;;;;;;;;;5103518;27;19924;-93
2022/06/08 14:57:10;;;;;;;;;;;;;;;;;;5118262;27;19923;-96
2022/06/08 14:59:38;;;;;;;;;;;;;;;;;;5159914;22;19932;-94
2022/06/08 15:02:22;;;;;;;;;;;;;;;;;;5018224;28;19932;-93
2022/06/08 15:04:48;;;;;;;;;;;;;;;;;;5017942;28;20016;-93
2022/06/08 15:07:20;;;;;;;;;;;;;;;;;;5035811;28;19924;-93
2022/06/08 15:09:46;;;;;;;;;;;;;;;;;;5022476;28;20323;-93
2022/06/08 15:12:13;;;;;;;;;;;;;;;;;;5034092;28;19929;-84
2022/06/08 15:14:44;;;;;;;;;;;;;;;;;;5039306;28;19939;-85
2022/06/08 15:17:10;;;;;;;;;;;;;;;;;;5050410;28;19924;-87
2022/06/08 15:19:36;;;;;;;;;;;;;;;;;;5048108;28;20284;-87
2022/06/08 15:22:02;;;;;;;;;;;;;;;;;;5033885;28;19925;-85
2022/06/08 15:24:28;;;;;;;;;;;;;;;;;;5033237;28;19924;-84
2022/06/08 15:26:54;;;;;;;;;;;;;;;;;;5046729;28;19925;-86
2022/06/08 15:29:26;;;;;;;;;;;;;;;;;;5049646;28;19932;-90
2022/06/08 15:31:55;;;;;;;;;;;;;;;;;;5068176;28;20016;-87
2022/06/08 15:34:21;;;;;;;;;;;;;;;;;;5048672;28;19925;-86
2022/06/08 15:36:47;;;;;;;;;;;;;;;;;;5031457;28;19931;-87
2022/06/08 15:39:13;;;;;;;;;;;;;;;;;;5030322;28;20364;-87
2022/06/08 15:53:01;;;;;;;;;;;;;;;;;;5471339;22;20398;-86
2022/06/08 15:55:27;;;;;;;;;;;;;;;;;;5046810;28;19928;-87
2022/06/08 15:57:53;;;;;;;;;;;;;;;;;;5046973;28;19940;-85
2022/06/08 16:00:21;;;;;;;;;;;;;;;;;;5054414;28;19924;-83
2022/06/08 16:02:47;;;;;;;;;;;;;;;;;;5070289;28;20120;-87
2022/06/08 16:05:15;;;;;;;;;;;;;;;;;;5049037;28;20291;-82
2022/06/08 16:07:42;;;;;;;;;;;;;;;;;;5048377;28;19932;-82
2022/06/08 16:10:08;;;;;;;;;;;;;;;;;;5046814;28;20303;-84
2022/06/08 16:12:34;;;;;;;;;;;;;;;;;;5066859;28;19928;-85
2022/06/08 16:15:00;;;;;;;;;;;;;;;;;;5046258;28;20383;-85
2022/06/08 16:17:26;;;;;;;;;;;;;;;;;;5064218;28;20393;-86
2022/06/08 16:19:52;;;;;;;;;;;;;;;;;;5062628;28;20367;-80
2022/06/08 16:22:21;;;;;;;;;;;;;;;;;;5051728;28;19970;-88
2022/06/08 16:24:47;;;;;;;;;;;;;;;;;;5058101;28;19924;-85
2022/06/08 16:27:13;;;;;;;;;;;;;;;;;;5063982;28;19924;-79
2022/06/08 16:29:39;;;;;;;;;;;;;;;;;;5054274;28;19928;-84
2022/06/08 16:32:05;;;;;;;;;;;;;;;;;;5068899;28;19936;-83
2022/06/08 16:34:31;;;;;;;;;;;;;;;;;;5070680;28;19925;-83
2022/06/08 16:36:57;;;;;;;;;;;;;;;;;;5080340;28;19973;-82
2022/06/08 16:39:23;;;;;;;;;;;;;;;;;;5069692;28;20022;-81
2022/06/08 16:41:49;;;;;;;;;;;;;;;;;;5070214;28;21360;-83
2022/06/08 16:44:15;;;;;;;;;;;;;;;;;;5066938;28;19924;-83
2022/06/08 16:46:41;;;;;;;;;;;;;;;;;;5062151;28;20017;-82
2022/06/08 16:49:07;;;;;;;;;;;;;;;;;;5071347;28;19925;-83
2022/06/08 16:51:33;;;;;;;;;;;;;;;;;;5060768;28;19928;-87
2022/06/08 16:53:58;;;;;;;;;;;;;;;;;;5068040;28;19924;-83
2022/06/08 16:59:36;;;;;;;;;;;;;;;;;;5047367;28;19928;-83
2022/06/08 16:59:56;;;;;;;;;;;;;;;;;;5060575;28;19931;-84
2022/06/08 17:01:56;;;;;;;;;;;;;;;;;;5048878;28;19928;-87
2022/06/08 17:04:22;;;;;;;;;;;;;;;;;;5047891;28;19935;-86
2022/06/08 17:06:50;;;;;;;;;;;;;;;;;;5064913;28;19924;-87
2022/06/08 17:09:16;;;;;;;;;;;;;;;;;;5057134;28;19997;-85
2022/06/08 17:11:47;;;;;;;;;;;;;;;;;;5051265;28;20410;-87
2022/06/08 17:14:13;;;;;;;;;;;;;;;;;;5065267;28;19928;-87
2022/06/08 17:16:38;;;;;;;;;;;;;;;;;;5053554;28;19986;-83
2022/06/08 17:19:04;;;;;;;;;;;;;;;;;;5054885;28;19924;-90